Time;durP1;ratioP1;P1;durP2;ratioP2;P2;SDS_P1;SDS_P2;PMS_P1;PMS_P2;Temp;Humidity;BMP_temperature;BMP_pressure;BME280_temperature;BME280_humidity;BME280_pressure;Samples;Min_cycle;Max_cycle;Signal;HPM_P1;HPM_P2
2023/03/05 00:01:14;;;;;;;;;;;0.40;99.90;;;;;;4999059;28;19925;-88
2023/03/05 00:03:40;;;;;;;;;;;0.50;99.90;;;;;;4999084;28;19975;-89
2023/03/05 00:06:05;;;;;;;;;;;0.50;99.90;;;;;;4999101;28;20369;-89
2023/03/05 00:08:31;;;;;;;;;;;0.50;99.90;;;;;;4999125;28;19916;-89
2023/03/05 00:11:15;;;;;;;;;;;0.50;99.90;;;;;;4999629;28;19976;-89
2023/03/05 00:13:41;;;;;;;;;;;0.50;99.90;;;;;;4999964;28;19959;-89
2023/03/05 00:16:11;;;;;;;;;;;0.40;99.90;;;;;;4999218;28;20305;-89
2023/03/05 00:18:37;;;;;;;;;;;0.40;99.90;;;;;;4998808;28;19913;-88
2023/03/05 00:21:04;;;;;;;;;;;0.40;99.90;;;;;;4998757;28;19920;-89
2023/03/05 00:23:30;;;;;;;;;;;0.30;99.90;;;;;;4998572;28;19917;-88
2023/03/05 00:25:55;;;;;;;;;;;0.30;99.90;;;;;;4998715;28;19913;-89
2023/03/05 00:28:21;;;;;;;;;;;0.30;99.90;;;;;;5015265;28;20038;-89
2023/03/05 00:30:46;;;;;;;;;;;0.30;99.90;;;;;;4998660;28;20286;-89
2023/03/05 00:33:12;;;;;;;;;;;0.30;99.90;;;;;;4998510;28;19913;-89
2023/03/05 00:35:42;;;;;;;;;;;0.30;99.90;;;;;;4998479;28;20370;-89
2023/03/05 00:38:08;;;;;;;;;;;0.30;99.90;;;;;;4998631;28;19916;-89
2023/03/05 00:40:35;;;;;;;;;;;0.30;99.90;;;;;;4998389;28;20000;-89
2023/03/05 00:43:00;;;;;;;;;;;0.20;99.90;;;;;;5015877;28;20346;-89
2023/03/05 00:45:26;;;;;;;;;;;0.20;99.90;;;;;;4998368;28;19957;-89
2023/03/05 00:47:51;;;;;;;;;;;0.20;99.90;;;;;;4998237;28;19957;-88
2023/03/05 00:50:17;;;;;;;;;;;0.30;99.90;;;;;;4998329;28;19914;-88
2023/03/05 00:52:42;;;;;;;;;;;0.30;99.90;;;;;;4998143;28;19920;-89
2023/03/05 00:55:08;;;;;;;;;;;0.40;99.90;;;;;;4998188;28;19913;-88
2023/03/05 00:57:34;;;;;;;;;;;0.40;99.90;;;;;;4997548;28;19940;-88
2023/03/05 00:59:59;;;;;;;;;;;0.50;99.90;;;;;;4998571;28;20012;-88
2023/03/05 01:02:25;;;;;;;;;;;0.50;99.90;;;;;;4997752;28;19918;-88
2023/03/05 01:04:51;;;;;;;;;;;0.50;99.90;;;;;;4997991;28;20277;-88
2023/03/05 01:07:16;;;;;;;;;;;0.50;99.90;;;;;;4997818;28;19921;-88
2023/03/05 01:09:42;;;;;;;;;;;0.50;99.90;;;;;;4997817;28;19919;-88
2023/03/05 01:12:07;;;;;;;;;;;0.50;99.90;;;;;;4998266;28;19920;-88
2023/03/05 01:14:34;;;;;;;;;;;0.60;99.90;;;;;;4997850;28;19917;-88
2023/03/05 01:17:00;;;;;;;;;;;0.60;99.90;;;;;;4997748;28;19924;-88
2023/03/05 01:19:26;;;;;;;;;;;0.60;99.90;;;;;;5013933;28;19961;-88
2023/03/05 01:21:51;;;;;;;;;;;0.60;99.90;;;;;;4997450;28;19918;-88
2023/03/05 01:24:17;;;;;;;;;;;0.50;99.90;;;;;;4997672;28;19914;-88
2023/03/05 01:26:43;;;;;;;;;;;0.50;99.90;;;;;;4997872;28;19914;-89
2023/03/05 01:29:09;;;;;;;;;;;0.40;99.90;;;;;;4998030;28;19959;-88
2023/03/05 01:31:34;;;;;;;;;;;0.40;99.90;;;;;;4996550;28;20007;-88
2023/03/05 01:34:00;;;;;;;;;;;0.40;99.90;;;;;;4981116;28;19917;-89
2023/03/05 01:36:26;;;;;;;;;;;0.40;99.90;;;;;;5014140;28;20417;-89
2023/03/05 01:38:51;;;;;;;;;;;0.50;99.90;;;;;;4997031;28;20008;-88
2023/03/05 01:41:20;;;;;;;;;;;0.50;99.90;;;;;;4998507;28;20362;-89
2023/03/05 01:43:46;;;;;;;;;;;0.40;99.90;;;;;;5013689;28;19916;-88
2023/03/05 01:46:11;;;;;;;;;;;0.40;99.90;;;;;;5013604;28;19909;-88
2023/03/05 01:48:38;;;;;;;;;;;0.30;99.90;;;;;;4997311;28;20352;-88
2023/03/05 01:51:04;;;;;;;;;;;0.40;99.90;;;;;;5013646;28;19909;-88
2023/03/05 01:53:30;;;;;;;;;;;0.30;99.90;;;;;;4997259;28;20016;-88
2023/03/05 01:55:56;;;;;;;;;;;0.30;99.90;;;;;;4997284;28;20420;-88
2023/03/05 01:58:22;;;;;;;;;;;0.30;99.90;;;;;;5014721;28;20388;-88
2023/03/05 02:00:49;;;;;;;;;;;0.30;99.90;;;;;;5013939;28;19960;-88
2023/03/05 02:03:15;;;;;;;;;;;0.40;99.90;;;;;;5013455;28;19910;-88
2023/03/05 02:05:43;;;;;;;;;;;0.40;99.90;;;;;;4997941;28;20024;-88
2023/03/05 02:08:11;;;;;;;;;;;0.40;99.90;;;;;;5013116;28;19910;-88
2023/03/05 02:10:38;;;;;;;;;;;0.40;99.90;;;;;;5013398;28;19909;-88
2023/03/05 02:13:07;;;;;;;;;;;0.40;99.90;;;;;;5013691;28;20373;-88
2023/03/05 02:15:33;;;;;;;;;;;0.50;99.90;;;;;;5013275;28;20321;-88
2023/03/05 02:18:00;;;;;;;;;;;0.50;99.90;;;;;;4997019;28;19910;-88
2023/03/05 02:20:27;;;;;;;;;;;0.40;99.90;;;;;;4996974;28;19913;-88
2023/03/05 02:22:53;;;;;;;;;;;0.40;99.90;;;;;;5013181;28;19921;-88
2023/03/05 02:25:24;;;;;;;;;;;0.40;99.90;;;;;;4996714;28;19964;-89
2023/03/05 02:27:58;;;;;;;;;;;0.40;99.90;;;;;;4996786;28;20370;-88
2023/03/05 02:30:25;;;;;;;;;;;0.40;99.90;;;;;;5014210;28;20004;-89
2023/03/05 02:32:51;;;;;;;;;;;0.40;99.90;;;;;;4996892;28;19909;-88
2023/03/05 02:35:16;;;;;;;;;;;0.40;99.90;;;;;;4996845;28;20259;-88
2023/03/05 02:37:42;;;;;;;;;;;0.40;99.90;;;;;;5013139;28;19916;-88
2023/03/05 02:40:08;;;;;;;;;;;0.30;99.90;;;;;;4996765;28;19913;-88
2023/03/05 02:42:34;;;;;;;;;;;0.30;99.90;;;;;;4996666;28;20385;-89
2023/03/05 02:45:00;;;;;;;;;;;0.30;99.90;;;;;;5012626;28;19929;-88
2023/03/05 02:47:26;;;;;;;;;;;0.30;99.90;;;;;;4996931;28;19914;-89
2023/03/05 02:49:52;;;;;;;;;;;0.40;99.90;;;;;;4996848;28;19914;-89
2023/03/05 02:52:17;;;;;;;;;;;0.50;99.90;;;;;;4997218;28;19916;-89
2023/03/05 02:54:44;;;;;;;;;;;0.50;99.90;;;;;;5013085;28;19964;-88
2023/03/05 02:57:10;;;;;;;;;;;0.50;99.90;;;;;;4996487;28;20366;-89
2023/03/05 02:59:35;;;;;;;;;;;0.40;99.90;;;;;;4996138;28;19920;-89
2023/03/05 03:02:01;;;;;;;;;;;0.40;99.90;;;;;;4996334;28;20020;-89
2023/03/05 03:04:26;;;;;;;;;;;0.40;99.90;;;;;;4996383;28;20437;-89
2023/03/05 03:06:52;;;;;;;;;;;0.30;99.90;;;;;;4997220;28;19921;-88
2023/03/05 03:09:17;;;;;;;;;;;0.30;99.90;;;;;;4996247;28;19913;-88
2023/03/05 03:11:43;;;;;;;;;;;0.30;99.90;;;;;;4993015;28;19971;-88
2023/03/05 03:14:09;;;;;;;;;;;0.20;99.90;;;;;;4976782;28;19936;-88
2023/03/05 03:16:34;;;;;;;;;;;0.30;99.90;;;;;;4976672;28;19921;-88
2023/03/05 03:19:00;;;;;;;;;;;0.30;99.90;;;;;;4976674;28;19914;-88
2023/03/05 03:21:25;;;;;;;;;;;0.40;99.90;;;;;;4979963;28;19918;-89
2023/03/05 03:23:51;;;;;;;;;;;0.40;99.90;;;;;;4998581;28;20006;-88
2023/03/05 03:26:17;;;;;;;;;;;0.40;99.90;;;;;;4980745;28;20385;-88
2023/03/05 03:28:43;;;;;;;;;;;0.40;99.90;;;;;;4980395;28;19910;-88
2023/03/05 03:31:09;;;;;;;;;;;0.50;99.90;;;;;;4980603;28;20422;-88
2023/03/05 03:33:34;;;;;;;;;;;0.50;99.90;;;;;;4980391;28;19917;-88
2023/03/05 03:36:00;;;;;;;;;;;0.50;99.90;;;;;;4980120;28;20358;-89
2023/03/05 03:38:26;;;;;;;;;;;0.50;99.90;;;;;;4980519;28;19925;-88
2023/03/05 03:40:51;;;;;;;;;;;0.40;99.90;;;;;;4980097;28;20004;-88
2023/03/05 03:43:17;;;;;;;;;;;0.40;99.90;;;;;;4978900;28;19914;-88
2023/03/05 03:45:43;;;;;;;;;;;0.40;99.90;;;;;;4980281;28;19969;-88
2023/03/05 03:48:09;;;;;;;;;;;0.30;99.90;;;;;;4980389;28;20358;-88
2023/03/05 03:50:38;;;;;;;;;;;0.30;99.90;;;;;;4980017;28;19910;-88
2023/03/05 03:53:04;;;;;;;;;;;0.30;99.90;;;;;;4979970;28;19914;-88
2023/03/05 03:55:30;;;;;;;;;;;0.30;99.90;;;;;;4980252;28;19925;-89
2023/03/05 03:57:55;;;;;;;;;;;0.30;99.90;;;;;;4980057;28;19914;-88
2023/03/05 04:00:21;;;;;;;;;;;0.30;99.90;;;;;;4980203;28;19913;-89
2023/03/05 04:02:46;;;;;;;;;;;0.30;99.90;;;;;;4979937;28;19940;-89
2023/03/05 04:05:12;;;;;;;;;;;0.30;99.90;;;;;;4979696;28;20445;-88
2023/03/05 04:07:38;;;;;;;;;;;0.30;99.90;;;;;;4999135;28;19913;-88
2023/03/05 04:10:04;;;;;;;;;;;0.20;99.90;;;;;;4999499;28;19917;-88
2023/03/05 04:12:30;;;;;;;;;;;0.20;99.90;;;;;;4999431;28;19949;-88
2023/03/05 04:14:56;;;;;;;;;;;0.20;99.90;;;;;;4999133;28;20000;-89
2023/03/05 04:17:22;;;;;;;;;;;0.30;99.90;;;;;;4998940;28;20420;-88
2023/03/05 04:19:47;;;;;;;;;;;0.30;99.90;;;;;;4999240;28;19916;-88
2023/03/05 04:22:14;;;;;;;;;;;0.30;99.90;;;;;;4982531;28;19922;-89
2023/03/05 04:24:40;;;;;;;;;;;0.40;99.90;;;;;;5016351;28;19920;-89
2023/03/05 04:27:06;;;;;;;;;;;0.40;99.90;;;;;;4999017;28;20281;-88
2023/03/05 04:29:32;;;;;;;;;;;0.40;99.90;;;;;;4982705;28;19914;-88
2023/03/05 04:31:58;;;;;;;;;;;0.40;99.90;;;;;;4982054;28;19914;-89
2023/03/05 04:34:23;;;;;;;;;;;0.40;99.90;;;;;;4982346;28;19913;-88
2023/03/05 04:36:49;;;;;;;;;;;0.40;99.90;;;;;;4982497;28;20282;-89
2023/03/05 04:39:15;;;;;;;;;;;0.40;99.90;;;;;;4998745;28;19922;-89
2023/03/05 04:41:41;;;;;;;;;;;0.40;99.90;;;;;;4998451;28;20020;-88
2023/03/05 04:44:06;;;;;;;;;;;0.30;99.90;;;;;;4998048;28;19917;-89
2023/03/05 04:46:32;;;;;;;;;;;0.30;99.90;;;;;;4982219;28;19914;-88
2023/03/05 04:48:58;;;;;;;;;;;0.30;99.90;;;;;;4998393;28;19910;-88
2023/03/05 04:51:24;;;;;;;;;;;0.30;99.90;;;;;;5014748;28;20008;-88
2023/03/05 04:53:49;;;;;;;;;;;0.30;99.90;;;;;;4988321;28;20334;-88
2023/03/05 04:56:15;;;;;;;;;;;0.20;99.90;;;;;;4978788;28;19913;-88
2023/03/05 04:58:40;;;;;;;;;;;0.20;99.90;;;;;;4978700;28;20441;-88
2023/03/05 05:01:06;;;;;;;;;;;0.20;99.90;;;;;;4978592;28;19914;-89
2023/03/05 05:03:32;;;;;;;;;;;0.20;99.90;;;;;;4979915;28;19956;-89
2023/03/05 05:05:59;;;;;;;;;;;0.20;99.90;;;;;;5006632;28;20395;-89
2023/03/05 05:08:25;;;;;;;;;;;0.30;99.90;;;;;;5017777;28;20000;-89
2023/03/05 05:11:11;;;;;;;;;;;0.30;99.90;;;;;;5017336;28;19953;-88
2023/03/05 05:13:37;;;;;;;;;;;0.30;99.90;;;;;;5017956;28;19920;-88
2023/03/05 05:16:04;;;;;;;;;;;0.20;99.90;;;;;;5002084;28;19913;-88
2023/03/05 05:18:30;;;;;;;;;;;0.20;99.90;;;;;;5033863;28;20006;-89
2023/03/05 05:20:56;;;;;;;;;;;0.20;99.90;;;;;;5033828;28;20023;-89
2023/03/05 05:23:21;;;;;;;;;;;0.20;99.90;;;;;;5001252;28;19999;-89
2023/03/05 05:25:54;;;;;;;;;;;0.20;99.90;;;;;;5033825;28;19920;-89
2023/03/05 05:28:20;;;;;;;;;;;0.10;99.90;;;;;;5017511;28;19992;-89
2023/03/05 05:30:45;;;;;;;;;;;0.10;99.90;;;;;;5001448;28;19944;-89
2023/03/05 05:33:11;;;;;;;;;;;0.10;99.90;;;;;;5035565;28;19959;-89
2023/03/05 05:35:38;;;;;;;;;;;0.10;99.90;;;;;;5001361;28;20377;-89
2023/03/05 05:38:04;;;;;;;;;;;0.10;99.90;;;;;;5017521;28;19916;-89
2023/03/05 05:40:29;;;;;;;;;;;0.10;99.90;;;;;;5035066;28;19913;-89
2023/03/05 05:42:55;;;;;;;;;;;0.00;99.90;;;;;;5000138;28;19917;-89
2023/03/05 05:45:20;;;;;;;;;;;0.00;99.90;;;;;;5000602;28;19922;-89
2023/03/05 05:47:46;;;;;;;;;;;0.00;99.90;;;;;;5000699;28;20385;-89
2023/03/05 05:50:12;;;;;;;;;;;0.00;99.90;;;;;;5017143;28;19956;-88
2023/03/05 05:52:37;;;;;;;;;;;0.00;99.90;;;;;;5000098;28;19956;-88
2023/03/05 05:55:03;;;;;;;;;;;0.00;99.90;;;;;;5017169;28;20327;-88
2023/03/05 05:57:28;;;;;;;;;;;0.00;99.90;;;;;;5000278;28;19935;-89
2023/03/05 05:59:54;;;;;;;;;;;0.00;99.90;;;;;;4991161;28;20313;-89
2023/03/05 06:02:20;;;;;;;;;;;-0.10;99.90;;;;;;4996843;28;19922;-88
2023/03/05 06:04:45;;;;;;;;;;;-0.10;99.90;;;;;;4997379;28;19964;-86
2023/03/05 06:07:11;;;;;;;;;;;-0.10;99.90;;;;;;4981809;28;20345;-86
2023/03/05 06:09:36;;;;;;;;;;;-0.10;99.90;;;;;;4981498;28;19972;-86
2023/03/05 06:12:02;;;;;;;;;;;0.00;99.90;;;;;;4981717;28;19920;-85
2023/03/05 06:14:28;;;;;;;;;;;-0.10;99.90;;;;;;4981206;28;19917;-85
2023/03/05 06:16:53;;;;;;;;;;;0.00;99.90;;;;;;4981370;28;19967;-86
2023/03/05 06:19:19;;;;;;;;;;;0.00;99.90;;;;;;4981445;28;20400;-85
2023/03/05 06:21:45;;;;;;;;;;;0.00;99.90;;;;;;4981010;28;20020;-85
2023/03/05 06:24:11;;;;;;;;;;;0.00;99.90;;;;;;4997607;28;19956;-85
2023/03/05 06:26:36;;;;;;;;;;;0.10;99.90;;;;;;4981443;28;19917;-85
2023/03/05 06:29:02;;;;;;;;;;;0.10;99.90;;;;;;4981344;28;19924;-86
2023/03/05 06:31:28;;;;;;;;;;;0.00;99.90;;;;;;4997289;28;19910;-86
2023/03/05 06:33:55;;;;;;;;;;;0.00;99.90;;;;;;4998869;28;19909;-86
2023/03/05 06:36:21;;;;;;;;;;;0.00;99.90;;;;;;4997688;28;19921;-86
2023/03/05 06:38:48;;;;;;;;;;;0.00;99.90;;;;;;4997386;28;20016;-86
2023/03/05 06:41:15;;;;;;;;;;;0.10;99.90;;;;;;4997752;28;19913;-86
2023/03/05 06:43:41;;;;;;;;;;;0.10;99.90;;;;;;5014783;28;19913;-85
2023/03/05 06:46:09;;;;;;;;;;;0.20;99.90;;;;;;4997830;28;19909;-87
2023/03/05 06:48:35;;;;;;;;;;;0.20;99.90;;;;;;5015713;28;19910;-86
2023/03/05 06:51:01;;;;;;;;;;;0.30;99.90;;;;;;5007704;28;19967;-85
2023/03/05 06:53:26;;;;;;;;;;;0.30;99.90;;;;;;5013393;28;20330;-85
2023/03/05 06:55:53;;;;;;;;;;;0.30;99.90;;;;;;5017460;28;19968;-86
2023/03/05 06:58:19;;;;;;;;;;;0.40;99.90;;;;;;5019758;28;19910;-85
2023/03/05 07:00:45;;;;;;;;;;;0.40;99.90;;;;;;5017452;28;20374;-86
2023/03/05 07:03:11;;;;;;;;;;;0.40;99.90;;;;;;4985327;28;19928;-86
2023/03/05 07:05:38;;;;;;;;;;;0.50;99.90;;;;;;5019795;28;20396;-86
2023/03/05 07:08:03;;;;;;;;;;;0.50;99.90;;;;;;5018084;28;19909;-85
2023/03/05 07:10:29;;;;;;;;;;;0.60;99.90;;;;;;5001640;28;19920;-85
2023/03/05 07:12:55;;;;;;;;;;;0.60;99.90;;;;;;5003923;28;19918;-86
2023/03/05 07:15:21;;;;;;;;;;;0.60;99.90;;;;;;5002176;28;19917;-85
2023/03/05 07:17:46;;;;;;;;;;;0.60;99.90;;;;;;5001296;28;20339;-85
2023/03/05 07:20:12;;;;;;;;;;;0.60;99.90;;;;;;4985259;28;19914;-85
2023/03/05 07:22:38;;;;;;;;;;;0.70;99.90;;;;;;4999193;28;19918;-85
2023/03/05 07:25:04;;;;;;;;;;;0.70;99.90;;;;;;4999116;28;19914;-86
2023/03/05 07:27:33;;;;;;;;;;;0.70;99.90;;;;;;4981296;28;19916;-86
2023/03/05 07:29:58;;;;;;;;;;;0.80;99.90;;;;;;4998427;28;19972;-86
2023/03/05 07:32:24;;;;;;;;;;;0.90;99.90;;;;;;4980675;28;19909;-85
2023/03/05 07:34:50;;;;;;;;;;;1.00;99.90;;;;;;4980658;28;20288;-85
2023/03/05 07:37:15;;;;;;;;;;;1.00;99.90;;;;;;4981618;28;19921;-85
2023/03/05 07:39:42;;;;;;;;;;;1.10;99.90;;;;;;4980386;28;19920;-85
2023/03/05 07:42:07;;;;;;;;;;;1.10;99.90;;;;;;4980427;28;19925;-86
2023/03/05 07:44:39;;;;;;;;;;;1.20;99.90;;;;;;4980315;28;20011;-86
2023/03/05 07:47:05;;;;;;;;;;;1.20;99.90;;;;;;4980226;28;20366;-85
2023/03/05 07:49:31;;;;;;;;;;;1.20;99.90;;;;;;4980370;28;19914;-85
2023/03/05 07:51:56;;;;;;;;;;;1.20;99.90;;;;;;4981189;28;19914;-85
2023/03/05 07:54:22;;;;;;;;;;;1.20;99.90;;;;;;4980409;28;20389;-85
2023/03/05 07:56:48;;;;;;;;;;;1.20;99.90;;;;;;4984335;28;19921;-85
2023/03/05 07:59:13;;;;;;;;;;;1.30;99.90;;;;;;5015783;28;20289;-85
2023/03/05 08:01:39;;;;;;;;;;;1.30;99.90;;;;;;5016032;28;20012;-85
2023/03/05 08:04:05;;;;;;;;;;;1.40;99.90;;;;;;5016107;28;19920;-85
2023/03/05 08:06:31;;;;;;;;;;;1.40;99.90;;;;;;4998611;28;20326;-85
2023/03/05 08:08:57;;;;;;;;;;;1.50;99.90;;;;;;4999304;28;20012;-85
2023/03/05 08:11:23;;;;;;;;;;;1.50;99.90;;;;;;4999103;28;19992;-85
2023/03/05 08:13:49;;;;;;;;;;;1.60;99.90;;;;;;4999887;28;19959;-85
2023/03/05 08:16:16;;;;;;;;;;;1.70;99.90;;;;;;4999902;28;19910;-85
2023/03/05 08:18:42;;;;;;;;;;;1.70;99.90;;;;;;4999105;28;19959;-85
2023/03/05 08:21:18;;;;;;;;;;;1.80;99.90;;;;;;4998792;28;19909;-85
2023/03/05 08:23:44;;;;;;;;;;;1.90;99.90;;;;;;5017856;28;19964;-85
2023/03/05 08:26:11;;;;;;;;;;;2.00;99.90;;;;;;4999392;28;20003;-84
2023/03/05 08:28:37;;;;;;;;;;;2.00;99.90;;;;;;5015669;28;20333;-84
2023/03/05 08:31:07;;;;;;;;;;;2.10;99.90;;;;;;4999417;28;19921;-85
2023/03/05 08:33:32;;;;;;;;;;;2.10;99.90;;;;;;4999530;28;19913;-84
2023/03/05 08:35:58;;;;;;;;;;;2.10;99.90;;;;;;5015286;28;19921;-84
2023/03/05 08:38:24;;;;;;;;;;;2.20;99.90;;;;;;5016032;28;19914;-84
2023/03/05 08:40:50;;;;;;;;;;;2.20;99.90;;;;;;4999515;28;20110;-84
2023/03/05 08:43:16;;;;;;;;;;;2.20;99.90;;;;;;4999912;28;19924;-84
2023/03/05 08:45:41;;;;;;;;;;;2.20;99.90;;;;;;5015806;28;19913;-84
2023/03/05 08:48:07;;;;;;;;;;;2.20;99.90;;;;;;4999415;28;19913;-84
2023/03/05 08:50:35;;;;;;;;;;;2.30;99.90;;;;;;4999528;28;19913;-84
2023/03/05 08:53:01;;;;;;;;;;;2.40;99.90;;;;;;5017609;28;19914;-84
2023/03/05 08:55:26;;;;;;;;;;;2.40;99.90;;;;;;4999333;28;19920;-84
2023/03/05 08:57:52;;;;;;;;;;;2.50;99.90;;;;;;5017238;28;20003;-84
2023/03/05 09:00:18;;;;;;;;;;;2.60;99.90;;;;;;4999713;28;20012;-84
2023/03/05 09:02:43;;;;;;;;;;;2.70;99.90;;;;;;5016933;28;19913;-84
2023/03/05 09:05:09;;;;;;;;;;;2.80;99.90;;;;;;5015173;28;19913;-84
2023/03/05 09:07:36;;;;;;;;;;;2.90;99.90;;;;;;5015421;28;20401;-85
2023/03/05 09:10:03;;;;;;;;;;;3.00;99.90;;;;;;4998247;28;19921;-85
2023/03/05 09:12:28;;;;;;;;;;;3.10;99.90;;;;;;4998068;28;20329;-85
2023/03/05 09:14:54;;;;;;;;;;;3.10;99.90;;;;;;4997545;28;19944;-85
2023/03/05 09:17:21;;;;;;;;;;;3.20;99.90;;;;;;4997699;28;19960;-85
2023/03/05 09:19:47;;;;;;;;;;;3.30;99.90;;;;;;4997703;28;19952;-85
2023/03/05 09:22:12;;;;;;;;;;;3.40;99.90;;;;;;4997257;28;19945;-86
2023/03/05 09:24:38;;;;;;;;;;;3.50;99.90;;;;;;4998833;28;19913;-86
2023/03/05 09:27:04;;;;;;;;;;;3.50;99.90;;;;;;4983242;28;19918;-85
2023/03/05 09:29:30;;;;;;;;;;;3.60;99.90;;;;;;4979371;28;19914;-86
2023/03/05 09:31:56;;;;;;;;;;;3.60;99.90;;;;;;4979717;28;19910;-86
2023/03/05 09:34:22;;;;;;;;;;;3.70;99.90;;;;;;4978425;28;20393;-85
2023/03/05 09:36:48;;;;;;;;;;;3.70;99.90;;;;;;4996254;28;19914;-86
2023/03/05 09:39:14;;;;;;;;;;;3.70;99.90;;;;;;4978802;28;19914;-86
2023/03/05 09:41:59;;;;;;;;;;;3.80;99.90;;;;;;4978735;28;19914;-85
2023/03/05 09:44:37;;;;;;;;;;;3.80;99.90;;;;;;4995119;28;19963;-86
2023/03/05 09:47:03;;;;;;;;;;;3.80;99.90;;;;;;4978341;28;19910;-85
2023/03/05 09:49:39;;;;;;;;;;;3.80;99.90;;;;;;4994533;28;20040;-85
2023/03/05 09:52:24;;;;;;;;;;;3.80;99.90;;;;;;4978438;28;19910;-86
2023/03/05 09:54:55;;;;;;;;;;;3.90;99.90;;;;;;4994446;28;19910;-86
2023/03/05 09:57:22;;;;;;;;;;;3.90;99.90;;;;;;4978619;28;19918;-86
2023/03/05 09:59:48;;;;;;;;;;;4.10;99.90;;;;;;4995803;28;19949;-86
2023/03/05 10:02:19;;;;;;;;;;;4.10;99.90;;;;;;4994577;28;20398;-86
2023/03/05 10:04:48;;;;;;;;;;;4.30;99.90;;;;;;4978224;28;19936;-86
2023/03/05 10:07:23;;;;;;;;;;;4.30;99.90;;;;;;4994833;28;19910;-87
2023/03/05 10:09:48;;;;;;;;;;;4.40;99.90;;;;;;4995699;28;19910;-86
2023/03/05 10:12:19;;;;;;;;;;;4.40;99.90;;;;;;4994250;28;20330;-86
2023/03/05 10:14:45;;;;;;;;;;;4.40;99.90;;;;;;4978185;28;19910;-86
2023/03/05 10:17:17;;;;;;;;;;;4.40;99.90;;;;;;4994643;28;20001;-86
2023/03/05 10:19:42;;;;;;;;;;;4.40;99.90;;;;;;4994377;28;19917;-85
2023/03/05 10:22:08;;;;;;;;;;;4.40;99.90;;;;;;4993698;28;20012;-87
2023/03/05 10:24:52;;;;;;;;;;;4.40;99.90;;;;;;4994111;28;19910;-87
2023/03/05 10:27:19;;;;;;;;;;;4.40;99.90;;;;;;4993916;28;20445;-86
2023/03/05 10:30:11;;;;;;;;;;;4.50;99.90;;;;;;4978472;28;19949;-87
2023/03/05 10:32:46;;;;;;;;;;;4.40;99.90;;;;;;4978042;28;19941;-86
2023/03/05 10:35:11;;;;;;;;;;;4.40;99.90;;;;;;4995224;28;19917;-86
2023/03/05 10:37:40;;;;;;;;;;;4.50;99.90;;;;;;4993937;28;19913;-87
2023/03/05 10:40:08;;;;;;;;;;;4.50;99.90;;;;;;4995399;28;19918;-87
2023/03/05 10:42:39;;;;;;;;;;;4.50;99.90;;;;;;4993867;28;19913;-86
2023/03/05 10:45:13;;;;;;;;;;;4.60;99.90;;;;;;4977704;28;19914;-87
2023/03/05 10:47:39;;;;;;;;;;;4.70;99.90;;;;;;4978408;28;20271;-87
2023/03/05 10:50:14;;;;;;;;;;;4.80;99.90;;;;;;4995379;28;19917;-86
2023/03/05 10:52:45;;;;;;;;;;;4.90;99.90;;;;;;4978337;28;19996;-87
2023/03/05 10:55:21;;;;;;;;;;;5.00;99.90;;;;;;4977586;28;19914;-87
2023/03/05 10:57:46;;;;;;;;;;;5.20;99.90;;;;;;5004214;28;19913;-88
2023/03/05 11:00:17;;;;;;;;;;;5.20;99.90;;;;;;4994954;28;20450;-88
2023/03/05 11:03:03;;;;;;;;;;;5.30;99.90;;;;;;5013132;28;19920;-88
2023/03/05 11:05:34;;;;;;;;;;;5.50;99.90;;;;;;4996699;28;20053;-88
2023/03/05 11:08:02;;;;;;;;;;;5.60;99.90;;;;;;4997174;28;20043;-88
2023/03/05 11:10:27;;;;;;;;;;;5.80;99.90;;;;;;4997945;28;20008;-88
2023/03/05 11:12:56;;;;;;;;;;;6.00;99.90;;;;;;5013255;28;20417;-87
2023/03/05 11:15:25;;;;;;;;;;;6.20;99.90;;;;;;4996797;28;19909;-87
2023/03/05 11:18:23;;;;;;;;;;;6.30;99.90;;;;;;5014094;28;19914;-86
2023/03/05 11:20:49;;;;;;;;;;;6.40;98.80;;;;;;4951825;28;19917;-87
2023/03/05 11:23:15;;;;;;;;;;;6.50;99.10;;;;;;4996734;28;19976;-86
2023/03/05 11:25:51;;;;;;;;;;;6.60;98.10;;;;;;4997077;28;19917;-87
2023/03/05 11:28:19;;;;;;;;;;;6.70;98.40;;;;;;4996696;28;19910;-89
2023/03/05 11:30:54;;;;;;;;;;;6.70;98.40;;;;;;4996476;28;19916;-86
2023/03/05 11:33:21;;;;;;;;;;;6.80;97.90;;;;;;4997144;28;19937;-87
2023/03/05 11:35:47;;;;;;;;;;;7.00;97.30;;;;;;4996775;28;19914;-88
2023/03/05 11:38:23;;;;;;;;;;;7.10;95.10;;;;;;4996843;28;19909;-86
2023/03/05 11:40:50;;;;;;;;;;;7.10;96.30;;;;;;4997563;28;19910;-87
2023/03/05 11:43:19;;;;;;;;;;;7.20;95.70;;;;;;5000172;28;19936;-87
2023/03/05 11:45:46;;;;;;;;;;;7.30;93.40;;;;;;4999599;28;20411;-87
2023/03/05 11:48:16;;;;;;;;;;;7.20;94.00;;;;;;5000206;28;20234;-87
2023/03/05 11:50:44;;;;;;;;;;;7.20;95.30;;;;;;4999710;28;19951;-88
2023/03/05 11:53:10;;;;;;;;;;;7.20;94.10;;;;;;5017116;28;19909;-86
2023/03/05 11:55:39;;;;;;;;;;;7.30;93.50;;;;;;4999036;28;20271;-87
2023/03/05 11:58:22;;;;;;;;;;;7.30;93.00;;;;;;5017432;28;20047;-86
2023/03/05 12:00:48;;;;;;;;;;;7.30;92.30;;;;;;4999849;28;20057;-86
2023/03/05 12:03:15;;;;;;;;;;;7.30;93.80;;;;;;5001105;28;20053;-86
2023/03/05 12:05:43;;;;;;;;;;;7.20;94.00;;;;;;5016955;28;20000;-88
2023/03/05 12:08:12;;;;;;;;;;;7.20;94.00;;;;;;5014459;28;19920;-88
2023/03/05 12:10:38;;;;;;;;;;;7.20;94.50;;;;;;5015099;28;20477;-87
2023/03/05 12:13:09;;;;;;;;;;;7.30;95.30;;;;;;4997193;28;19952;-89
2023/03/05 12:15:43;;;;;;;;;;;7.40;94.10;;;;;;5013374;28;19909;-88
2023/03/05 12:18:08;;;;;;;;;;;7.40;94.40;;;;;;4996090;28;20389;-89
2023/03/05 12:20:47;;;;;;;;;;;7.40;93.80;;;;;;5004280;28;19913;-88
2023/03/05 12:23:14;;;;;;;;;;;7.40;93.00;;;;;;4976786;28;19925;-88
2023/03/05 12:25:46;;;;;;;;;;;7.30;93.70;;;;;;5020623;28;19920;-89
2023/03/05 12:28:14;;;;;;;;;;;7.40;93.30;;;;;;5033902;28;19944;-89
2023/03/05 12:30:39;;;;;;;;;;;7.20;91.30;;;;;;5018377;28;19909;-88
2023/03/05 12:33:25;;;;;;;;;;;7.20;92.50;;;;;;5034877;28;19924;-88
2023/03/05 12:35:51;;;;;;;;;;;7.10;92.30;;;;;;5018405;28;19913;-88
2023/03/05 12:38:17;;;;;;;;;;;7.00;92.40;;;;;;5018373;28;20348;-88
2023/03/05 12:40:43;;;;;;;;;;;7.00;91.70;;;;;;5018204;28;20299;-88
2023/03/05 12:43:27;;;;;;;;;;;6.90;92.40;;;;;;5035844;28;20012;-87
2023/03/05 12:46:13;;;;;;;;;;;7.00;92.00;;;;;;5016412;28;20415;-88
2023/03/05 12:48:42;;;;;;;;;;;6.90;91.40;;;;;;5017940;28;19909;-88
2023/03/05 12:51:11;;;;;;;;;;;6.90;92.80;;;;;;5017466;28;19909;-88
2023/03/05 12:53:36;;;;;;;;;;;6.90;92.40;;;;;;5017246;28;20373;-86
2023/03/05 12:56:12;;;;;;;;;;;6.80;92.80;;;;;;5033645;28;19997;-88
2023/03/05 12:58:41;;;;;;;;;;;6.70;92.40;;;;;;5017792;28;19909;-87
2023/03/05 13:01:15;;;;;;;;;;;6.70;93.20;;;;;;5034242;28;19909;-88
2023/03/05 13:04:16;;;;;;;;;;;6.70;92.70;;;;;;5017461;28;19962;-87
2023/03/05 13:06:42;;;;;;;;;;;6.80;91.70;;;;;;4955590;29;20331;-87
2023/03/05 13:09:15;;;;;;;;;;;6.90;92.30;;;;;;5001317;28;19945;-87
2023/03/05 13:11:41;;;;;;;;;;;7.10;91.70;;;;;;5035747;28;19920;-87
2023/03/05 13:14:26;;;;;;;;;;;7.20;93.30;;;;;;5017554;28;19956;-87
2023/03/05 13:16:51;;;;;;;;;;;7.30;91.40;;;;;;5034097;28;19913;-87
2023/03/05 13:19:17;;;;;;;;;;;7.50;90.70;;;;;;5034063;28;19959;-88
2023/03/05 13:21:43;;;;;;;;;;;7.60;90.40;;;;;;5017149;28;19925;-88
2023/03/05 13:24:16;;;;;;;;;;;7.60;92.10;;;;;;5018433;28;19968;-87
2023/03/05 13:26:41;;;;;;;;;;;7.80;91.40;;;;;;5017431;28;19949;-88
2023/03/05 13:29:15;;;;;;;;;;;7.80;90.50;;;;;;5017213;28;19913;-88
2023/03/05 13:31:48;;;;;;;;;;;7.80;90.40;;;;;;5017420;28;19916;-88
2023/03/05 13:34:15;;;;;;;;;;;7.80;90.50;;;;;;5033720;28;20419;-86
2023/03/05 13:36:45;;;;;;;;;;;7.60;88.90;;;;;;5033135;28;20344;-85
2023/03/05 13:39:17;;;;;;;;;;;7.60;89.70;;;;;;5016088;28;19936;-86
2023/03/05 13:41:53;;;;;;;;;;;7.50;89.90;;;;;;5016845;28;19920;-86
2023/03/05 13:44:19;;;;;;;;;;;7.50;90.00;;;;;;5017243;28;19909;-86
2023/03/05 13:46:45;;;;;;;;;;;7.50;88.50;;;;;;5017045;28;19915;-86
2023/03/05 13:49:16;;;;;;;;;;;7.50;88.70;;;;;;5034536;28;19913;-86
2023/03/05 13:51:43;;;;;;;;;;;7.50;90.90;;;;;;5035349;28;19959;-86
2023/03/05 13:54:12;;;;;;;;;;;7.60;90.50;;;;;;5017278;28;19913;-86
2023/03/05 13:56:47;;;;;;;;;;;7.70;88.80;;;;;;5017157;28;19915;-86
2023/03/05 13:59:16;;;;;;;;;;;7.80;86.40;;;;;;5016778;28;19910;-86
2023/03/05 14:01:43;;;;;;;;;;;7.70;86.40;;;;;;5034525;28;19977;-86
2023/03/05 14:04:12;;;;;;;;;;;7.60;85.40;;;;;;5016705;28;19913;-85
2023/03/05 14:06:50;;;;;;;;;;;7.50;88.30;;;;;;5033930;28;19910;-86
2023/03/05 14:09:18;;;;;;;;;;;7.50;87.00;;;;;;5017490;28;19916;-87
2023/03/05 14:12:10;;;;;;;;;;;7.40;88.50;;;;;;5017378;28;20330;-86
2023/03/05 14:14:37;;;;;;;;;;;7.40;87.50;;;;;;5030394;28;19999;-86
2023/03/05 14:17:25;;;;;;;;;;;7.20;86.80;;;;;;5019275;28;19949;-85
2023/03/05 14:19:51;;;;;;;;;;;7.20;87.80;;;;;;5036189;28;19920;-86
2023/03/05 14:22:34;;;;;;;;;;;7.20;86.30;;;;;;5017004;28;19921;-86
2023/03/05 14:25:03;;;;;;;;;;;7.10;87.80;;;;;;5017640;28;20209;-85
2023/03/05 14:27:32;;;;;;;;;;;7.10;86.70;;;;;;5020482;28;20016;-86
2023/03/05 14:29:58;;;;;;;;;;;7.00;86.50;;;;;;5034084;28;19945;-86
2023/03/05 14:32:28;;;;;;;;;;;6.90;87.70;;;;;;5015748;28;19959;-85
2023/03/05 14:34:56;;;;;;;;;;;6.90;87.60;;;;;;5034248;28;19976;-86